createdAt,value
2022-09-09T00:01:37.417Z,22.00
2022-09-09T00:04:26.244Z,21.60
2022-09-09T00:07:05.099Z,21.50
2022-09-09T00:09:40.770Z,21.60
2022-09-09T00:15:01.128Z,21.60
2022-09-09T00:17:48.688Z,21.60
2022-09-09T00:20:28.840Z,21.50
2022-09-09T00:23:07.398Z,21.70
2022-09-09T00:25:52.727Z,21.60
2022-09-09T00:28:27.793Z,21.30
2022-09-09T00:30:56.424Z,21.70
2022-09-09T00:33:25.542Z,21.60
2022-09-09T00:35:59.107Z,21.60
2022-09-09T00:38:40.788Z,21.30
2022-09-09T00:41:36.054Z,21.50
2022-09-09T00:44:36.112Z,21.50
2022-09-09T00:47:21.289Z,21.50
2022-09-09T00:52:19.247Z,21.10
2022-09-09T00:55:10.074Z,21.50
2022-09-09T00:57:37.638Z,21.50
2022-09-09T01:00:16.103Z,21.50
2022-09-09T01:03:21.644Z,21.50
2022-09-09T01:06:04.276Z,21.50
2022-09-09T01:08:55.669Z,21.40
2022-09-09T01:11:28.987Z,21.50
2022-09-09T01:14:35.820Z,21.50
2022-09-09T01:17:33.436Z,21.50
2022-09-09T01:20:18.242Z,21.40
2022-09-09T01:22:58.344Z,21.40
2022-09-09T01:26:02.633Z,21.40
2022-09-09T01:28:30.525Z,21.40
2022-09-09T01:30:58.310Z,21.40
2022-09-09T01:33:25.378Z,21.40
2022-09-09T01:35:58.043Z,21.40
2022-09-09T01:38:25.994Z,21.40
2022-09-09T01:40:53.665Z,21.40
2022-09-09T01:43:24.530Z,21.40
2022-09-09T01:45:55.530Z,21.40
2022-09-09T01:48:24.308Z,21.40
2022-09-09T01:50:50.854Z,21.40
2022-09-09T01:53:20.067Z,21.40
2022-09-09T01:55:55.219Z,21.40
2022-09-09T01:58:48.528Z,21.40
2022-09-09T02:01:44.770Z,21.40
2022-09-09T02:04:29.384Z,21.40
2022-09-09T02:06:57.977Z,21.40
2022-09-09T02:09:26.707Z,21.30
2022-09-09T02:12:10.652Z,21.30
2022-09-09T02:14:42.718Z,21.30
2022-09-09T02:17:11.787Z,21.30
2022-09-09T02:19:45.438Z,21.30
2022-09-09T02:22:12.519Z,21.40
2022-09-09T02:24:41.066Z,21.30
2022-09-09T02:27:09.876Z,21.30
2022-09-09T02:29:42.196Z,21.30
2022-09-09T02:32:22.694Z,21.30
2022-09-09T02:34:57.717Z,21.30
2022-09-09T02:37:30.233Z,21.30
2022-09-09T02:39:56.989Z,21.30
2022-09-09T02:42:24.804Z,21.30
2022-09-09T02:44:51.352Z,21.30
2022-09-09T02:47:42.203Z,21.30
2022-09-09T02:50:12.720Z,21.30
2022-09-09T02:53:03.282Z,21.30
2022-09-09T02:56:14.507Z,21.30
2022-09-09T02:58:41.722Z,21.30
2022-09-09T03:01:09.639Z,21.30
2022-09-09T03:03:36.563Z,21.30
2022-09-09T03:06:03.301Z,21.30
2022-09-09T03:08:29.916Z,21.30
2022-09-09T03:10:59.080Z,21.30
2022-09-09T03:13:26.137Z,21.30
2022-09-09T03:15:52.768Z,21.30
2022-09-09T03:18:19.318Z,21.30
2022-09-09T03:20:49.373Z,21.30
2022-09-09T03:23:16.235Z,21.30
2022-09-09T03:25:49.948Z,21.30
2022-09-09T03:30:43.785Z,21.30
2022-09-09T03:35:37.381Z,21.30
2022-09-09T03:38:04.021Z,21.30
2022-09-09T03:40:31.897Z,21.20
2022-09-09T03:42:58.412Z,21.30
2022-09-09T03:45:25.000Z,21.20
2022-09-09T03:47:51.544Z,21.20
2022-09-09T03:50:19.312Z,21.20
2022-09-09T03:52:46.901Z,21.20
2022-09-09T03:55:13.480Z,21.20
2022-09-09T03:57:40.010Z,21.20
2022-09-09T04:00:08.785Z,21.20
2022-09-09T04:02:35.488Z,21.20
2022-09-09T04:05:02.048Z,21.20
2022-09-09T04:07:29.011Z,21.20
2022-09-09T04:09:55.561Z,21.20
2022-09-09T04:12:23.278Z,21.10
2022-09-09T04:14:49.973Z,21.10
2022-09-09T04:17:16.898Z,21.20
2022-09-09T04:19:43.697Z,21.10
2022-09-09T04:22:10.598Z,21.20
2022-09-09T04:24:37.165Z,21.10
2022-09-09T04:27:03.820Z,21.10
2022-09-09T04:29:30.367Z,21.20
2022-09-09T04:31:56.934Z,21.10
2022-09-09T04:34:23.556Z,21.10
2022-09-09T04:36:50.091Z,21.10
2022-09-09T04:39:16.634Z,21.10
2022-09-09T04:41:43.174Z,21.10
2022-09-09T04:44:10.962Z,21.10
2022-09-09T04:46:37.535Z,20.10
2022-09-09T04:49:04.118Z,19.00
2022-09-09T04:51:32.097Z,18.50
2022-09-09T04:53:58.616Z,18.00
2022-09-09T04:56:27.719Z,17.90
2022-09-09T05:01:23.060Z,18.00
2022-09-09T05:03:50.078Z,18.00
2022-09-09T05:06:19.172Z,18.00
2022-09-09T05:08:46.233Z,17.90
2022-09-09T05:11:30.797Z,18.10
2022-09-09T05:13:57.893Z,18.10
2022-09-09T05:16:25.113Z,18.10
2022-09-09T05:18:52.101Z,18.10
2022-09-09T05:21:20.461Z,18.10
2022-09-09T05:23:47.296Z,18.80
2022-09-09T05:26:17.857Z,19.50
2022-09-09T05:28:45.317Z,19.80
2022-09-09T05:31:13.696Z,19.80
2022-09-09T05:33:43.913Z,20.20
2022-09-09T05:36:16.175Z,20.30
2022-09-09T05:38:43.113Z,20.50
2022-09-09T05:41:12.087Z,20.50
2022-09-09T05:43:39.518Z,20.60
2022-09-09T05:46:08.861Z,20.60
2022-09-09T05:48:38.260Z,20.70
2022-09-09T05:51:07.746Z,20.80
2022-09-09T05:53:37.057Z,20.80
2022-09-09T05:56:11.298Z,20.90
2022-09-09T05:58:39.141Z,20.90
2022-09-09T06:01:11.097Z,21.00
2022-09-09T06:03:40.403Z,21.00
2022-09-09T06:06:09.457Z,21.00
2022-09-09T06:08:40.701Z,21.00
2022-09-09T06:11:09.827Z,21.00
2022-09-09T06:13:38.335Z,21.00
2022-09-09T06:16:05.475Z,21.10
2022-09-09T06:18:32.092Z,21.10
2022-09-09T06:21:04.558Z,21.30
2022-09-09T06:23:31.954Z,21.10
2022-09-09T06:26:19.953Z,21.10
2022-09-09T06:28:48.540Z,21.10
2022-09-09T06:31:25.850Z,21.20
2022-09-09T06:33:56.031Z,21.20
2022-09-09T06:36:31.919Z,21.10
2022-09-09T06:38:59.448Z,21.20
2022-09-09T06:41:29.243Z,21.30
2022-09-09T06:43:58.803Z,21.20
2022-09-09T06:46:28.746Z,21.50
2022-09-09T06:48:56.952Z,21.30
2022-09-09T06:51:24.976Z,21.30
2022-09-09T06:53:54.576Z,21.20
2022-09-09T06:56:25.506Z,21.20
2022-09-09T06:58:53.378Z,21.40
2022-09-09T07:01:22.578Z,21.30
2022-09-09T07:03:51.795Z,21.30
2022-09-09T07:08:59.869Z,21.30
2022-09-09T07:11:29.390Z,21.30
2022-09-09T07:13:57.747Z,21.30
2022-09-09T07:16:25.578Z,21.60
2022-09-09T07:18:53.552Z,21.30
2022-09-09T07:21:21.842Z,21.40
2022-09-09T07:23:48.378Z,21.40
2022-09-09T07:26:17.457Z,21.00
2022-09-09T07:28:44.307Z,20.40
2022-09-09T07:31:17.290Z,20.10
2022-09-09T07:36:18.429Z,20.00
2022-09-09T07:38:51.035Z,20.00
2022-09-09T07:41:23.844Z,20.00
2022-09-09T07:43:51.578Z,19.90
2022-09-09T07:46:20.322Z,19.90
2022-09-09T07:48:52.033Z,19.90
2022-09-09T07:51:30.634Z,19.70
2022-09-09T07:54:05.928Z,19.70
2022-09-09T07:56:33.720Z,19.70
2022-09-09T07:59:00.823Z,19.80
2022-09-09T08:01:33.468Z,19.90
2022-09-09T08:04:02.278Z,19.80
2022-09-09T08:06:31.368Z,19.90
2022-09-09T08:08:57.917Z,20.10
2022-09-09T08:11:26.766Z,20.20
2022-09-09T08:13:56.094Z,20.30
2022-09-09T08:16:27.308Z,20.30
2022-09-09T08:18:57.399Z,20.30
2022-09-09T08:21:29.452Z,20.10
2022-09-09T08:23:58.248Z,20.10
2022-09-09T08:26:35.205Z,20.20
2022-09-09T08:29:03.392Z,20.20
2022-09-09T08:31:41.866Z,20.60
2022-09-09T08:34:08.983Z,20.60
2022-09-09T08:36:43.202Z,20.80
2022-09-09T08:39:12.013Z,20.90
2022-09-09T08:42:17.096Z,21.00
2022-09-09T08:45:36.393Z,21.00
2022-09-09T08:48:30.758Z,21.10
2022-09-09T08:51:02.751Z,21.10
2022-09-09T08:53:38.894Z,21.10
2022-09-09T08:56:13.937Z,21.10
2022-09-09T08:59:01.511Z,21.20
2022-09-09T09:01:47.296Z,21.20
2022-09-09T09:04:52.225Z,21.20
2022-09-09T09:07:43.621Z,21.30
2022-09-09T09:13:18.983Z,21.30
2022-09-09T09:15:51.275Z,21.30
2022-09-09T09:18:18.536Z,21.30
2022-09-09T09:21:26.909Z,21.20
2022-09-09T09:23:59.019Z,21.30
2022-09-09T09:26:32.297Z,21.30
2022-09-09T09:29:01.568Z,21.40
2022-09-09T09:31:28.199Z,21.40
2022-09-09T09:33:56.825Z,21.40
2022-09-09T09:36:33.822Z,21.40
2022-09-09T09:41:49.820Z,21.20
2022-09-09T09:44:33.404Z,21.20
2022-09-09T09:47:11.931Z,21.30
2022-09-09T09:49:38.455Z,21.30
2022-09-09T09:52:07.033Z,21.30
2022-09-09T09:54:42.402Z,21.30
2022-09-09T09:57:11.832Z,21.30
2022-09-09T09:59:40.989Z,21.30
2022-09-09T10:02:21.934Z,21.40
2022-09-09T10:04:48.685Z,21.30
2022-09-09T10:07:21.223Z,21.30
2022-09-09T10:09:56.564Z,21.40
2022-09-09T10:12:27.032Z,21.50
2022-09-09T10:15:31.582Z,21.40
2022-09-09T10:18:17.123Z,21.40
2022-09-09T10:21:16.848Z,21.40
2022-09-09T10:26:30.809Z,21.40
2022-09-09T10:35:03.657Z,21.30
2022-09-09T10:37:49.194Z,21.30
2022-09-09T10:40:46.392Z,21.30
2022-09-09T10:44:00.430Z,21.30
2022-09-09T10:46:36.906Z,21.30
2022-09-09T10:49:21.978Z,21.30
2022-09-09T10:52:11.846Z,21.40
2022-09-09T10:55:15.184Z,21.50
2022-09-09T10:57:50.363Z,21.60
2022-09-09T11:00:23.875Z,21.50
2022-09-09T11:03:27.500Z,21.70
2022-09-09T11:05:59.214Z,21.70
2022-09-09T11:08:30.619Z,21.70
2022-09-09T11:11:20.115Z,21.60
2022-09-09T11:13:52.816Z,21.50
2022-09-09T11:16:22.641Z,21.50
2022-09-09T11:18:50.131Z,21.40
2022-09-09T11:21:47.219Z,21.40
2022-09-09T11:24:29.253Z,21.40
2022-09-09T11:27:03.960Z,21.30
2022-09-09T11:29:36.300Z,21.20
2022-09-09T11:32:11.063Z,21.20
2022-09-09T11:34:51.566Z,21.30
2022-09-09T11:37:30.197Z,21.20
2022-09-09T11:40:10.618Z,21.20
2022-09-09T11:42:37.397Z,21.20
2022-09-09T11:45:31.151Z,21.20
2022-09-09T11:48:00.299Z,21.10
2022-09-09T11:50:26.780Z,21.10
2022-09-09T11:53:05.857Z,21.10
2022-09-09T11:55:37.812Z,21.10
2022-09-09T11:58:14.766Z,21.20
2022-09-09T12:03:32.108Z,21.30
2022-09-09T12:05:59.817Z,21.30
2022-09-09T12:08:29.225Z,21.30
2022-09-09T12:11:04.229Z,21.30
2022-09-09T12:13:32.290Z,21.30
2022-09-09T12:16:00.460Z,21.30
2022-09-09T12:18:37.643Z,21.30
2022-09-09T12:21:36.711Z,21.10
2022-09-09T12:24:12.276Z,21.00
2022-09-09T12:26:49.849Z,20.90
2022-09-09T12:29:19.489Z,20.80
2022-09-09T12:32:10.909Z,20.80
2022-09-09T12:35:02.075Z,20.60
2022-09-09T12:37:36.649Z,20.40
2022-09-09T12:40:20.249Z,20.30
2022-09-09T12:42:47.081Z,20.40
2022-09-09T12:45:21.401Z,20.50
2022-09-09T12:47:52.899Z,20.60
2022-09-09T12:50:26.597Z,20.70
2022-09-09T12:52:59.396Z,20.70
2022-09-09T12:55:31.024Z,20.70
2022-09-09T12:58:00.302Z,20.60
2022-09-09T13:00:27.950Z,20.70
2022-09-09T13:03:19.763Z,20.70
2022-09-09T13:05:47.729Z,20.60
2022-09-09T13:08:15.976Z,20.60
2022-09-09T13:10:53.746Z,20.60
2022-09-09T13:13:24.551Z,20.60
2022-09-09T13:15:57.280Z,20.60
2022-09-09T13:18:27.768Z,20.60
2022-09-09T13:20:54.591Z,20.70
2022-09-09T13:23:21.967Z,20.40
2022-09-09T13:26:00.920Z,20.10
2022-09-09T13:28:33.733Z,20.10
2022-09-09T13:31:07.783Z,19.90
2022-09-09T13:36:08.409Z,19.60
2022-09-09T13:39:00.525Z,19.50
2022-09-09T13:41:31.259Z,19.50
2022-09-09T13:43:58.391Z,19.50
2022-09-09T13:46:36.860Z,19.50
2022-09-09T13:49:20.849Z,19.50
2022-09-09T13:51:51.546Z,19.70
2022-09-09T13:54:20.531Z,19.80
2022-09-09T13:56:47.834Z,19.40
2022-09-09T13:59:20.761Z,19.40
2022-09-09T14:01:47.588Z,19.30
2022-09-09T14:04:14.338Z,19.50
2022-09-09T14:06:41.039Z,19.40
2022-09-09T14:09:12.747Z,19.80
2022-09-09T14:11:39.582Z,19.90
2022-09-09T14:14:06.296Z,19.60
2022-09-09T14:16:33.625Z,19.60
2022-09-09T14:19:00.288Z,19.60
2022-09-09T14:21:28.364Z,19.70
2022-09-09T14:23:55.805Z,19.90
2022-09-09T14:26:22.796Z,19.80
2022-09-09T14:28:55.458Z,20.10
2022-09-09T14:31:23.184Z,20.20
2022-09-09T14:33:50.990Z,20.10
2022-09-09T14:36:17.801Z,20.40
2022-09-09T14:38:44.343Z,20.40
2022-09-09T14:41:13.482Z,20.20
2022-09-09T14:43:40.840Z,20.20
2022-09-09T14:46:08.927Z,20.30
2022-09-09T14:48:36.178Z,20.30
2022-09-09T14:51:20.456Z,20.30
2022-09-09T14:53:47.622Z,20.20
2022-09-09T14:56:19.615Z,20.10
2022-09-09T14:58:47.183Z,20.10
2022-09-09T15:01:16.997Z,20.10
2022-09-09T15:03:49.259Z,20.10
2022-09-09T15:06:16.393Z,20.00
2022-09-09T15:08:45.020Z,20.50
2022-09-09T15:13:41.352Z,20.00
2022-09-09T15:16:16.740Z,19.90
2022-09-09T15:26:10.083Z,19.70
2022-09-09T15:31:15.217Z,19.40
2022-09-09T15:33:42.441Z,19.50
2022-09-09T15:38:42.260Z,18.70
2022-09-09T15:41:08.790Z,18.80
2022-09-09T15:43:35.368Z,18.80
2022-09-09T15:46:18.756Z,18.80
2022-09-09T15:48:47.400Z,18.60
2022-09-09T15:54:02.706Z,18.60
2022-09-09T16:01:28.827Z,18.60
2022-09-09T16:03:55.480Z,19.10
2022-09-09T16:06:24.109Z,18.70
2022-09-09T16:11:20.845Z,18.50
2022-09-09T16:16:20.813Z,18.60
2022-09-09T16:18:49.716Z,19.00
2022-09-09T16:21:21.983Z,18.70
2022-09-09T16:23:50.202Z,18.70
2022-09-09T16:26:18.507Z,18.80
2022-09-09T16:28:47.232Z,18.90
2022-09-09T16:31:20.081Z,18.40
2022-09-09T16:33:48.357Z,18.50
2022-09-09T16:36:17.509Z,18.60
2022-09-09T16:38:44.126Z,18.70
2022-09-09T16:41:12.360Z,18.60
2022-09-09T16:43:39.597Z,18.80
2022-09-09T16:46:18.040Z,18.50
2022-09-09T16:48:46.050Z,18.80
2022-09-09T16:51:18.936Z,18.50
2022-09-09T16:53:45.941Z,18.70
2022-09-09T16:56:16.155Z,18.90
2022-09-09T16:58:46.677Z,19.00
2022-09-09T17:01:14.958Z,18.70
2022-09-09T17:03:42.362Z,18.90
2022-09-09T17:06:13.475Z,18.90
2022-09-09T17:08:42.293Z,19.10
2022-09-09T17:11:14.823Z,18.70
2022-09-09T17:13:45.130Z,18.80
2022-09-09T17:16:13.060Z,18.50
2022-09-09T17:21:11.517Z,18.70
2022-09-09T17:23:38.969Z,18.50
2022-09-09T17:26:08.526Z,18.60
2022-09-09T17:28:36.467Z,18.60
2022-09-09T17:33:43.266Z,18.60
2022-09-09T17:36:29.633Z,18.80
2022-09-09T17:38:56.382Z,18.70
2022-09-09T17:41:25.691Z,18.20
2022-09-09T17:46:25.817Z,18.80
2022-09-09T17:48:56.756Z,18.60
2022-09-09T17:51:25.799Z,18.60
2022-09-09T17:53:55.612Z,18.60
2022-09-09T17:56:26.035Z,18.70
2022-09-09T17:58:53.673Z,18.30
2022-09-09T18:01:23.595Z,18.50
2022-09-09T18:03:51.505Z,18.20
2022-09-09T18:06:20.929Z,18.60
2022-09-09T18:08:54.220Z,18.50
2022-09-09T18:11:22.346Z,18.60
2022-09-09T18:13:54.989Z,18.70
2022-09-09T18:16:24.769Z,18.80
2022-09-09T18:18:52.561Z,18.60
2022-09-09T18:21:20.339Z,18.60
2022-09-09T18:23:52.130Z,19.00
2022-09-09T18:26:22.062Z,18.70
2022-09-09T18:28:51.008Z,18.70
2022-09-09T18:31:20.763Z,18.70
2022-09-09T18:33:53.194Z,18.60
2022-09-09T18:36:22.696Z,18.50
2022-09-09T18:38:49.650Z,18.90
2022-09-09T18:41:17.661Z,18.80
2022-09-09T18:43:45.204Z,18.50
2022-09-09T18:46:12.858Z,18.80
2022-09-09T18:48:39.627Z,18.40
2022-09-09T18:51:08.530Z,18.40
2022-09-09T18:53:36.860Z,18.60
2022-09-09T18:56:06.211Z,18.60
2022-09-09T18:58:34.445Z,18.60
2022-09-09T19:03:30.514Z,18.30
2022-09-09T19:06:12.412Z,18.50
2022-09-09T19:08:40.779Z,18.60
2022-09-09T19:11:10.189Z,18.60
2022-09-09T19:13:37.286Z,18.90
2022-09-09T19:16:12.919Z,18.90
2022-09-09T19:21:17.957Z,18.60
2022-09-09T19:23:49.489Z,18.40
2022-09-09T19:26:18.719Z,18.40
2022-09-09T19:28:46.969Z,18.90
2022-09-09T19:31:17.542Z,18.50
2022-09-09T19:33:47.022Z,18.60
2022-09-09T19:36:17.014Z,18.70
2022-09-09T19:41:15.372Z,18.30
2022-09-09T19:43:42.001Z,18.60
2022-09-09T19:46:14.336Z,18.50
2022-09-09T19:51:12.161Z,18.20
2022-09-09T19:53:41.668Z,18.40
2022-09-09T19:56:09.312Z,18.40
2022-09-09T19:58:39.804Z,18.30
2022-09-09T20:01:18.017Z,18.30
2022-09-09T20:03:47.656Z,18.30
2022-09-09T20:06:16.945Z,18.10
2022-09-09T20:08:48.387Z,18.20
2022-09-09T20:11:16.873Z,17.90
2022-09-09T20:13:44.304Z,18.20
2022-09-09T20:16:17.273Z,18.20
2022-09-09T20:18:51.519Z,18.30
2022-09-09T20:21:31.836Z,18.10
2022-09-09T20:24:00.925Z,18.20
2022-09-09T20:26:30.836Z,18.30
2022-09-09T20:28:57.978Z,18.70
2022-09-09T20:31:27.053Z,18.20
2022-09-09T20:36:26.476Z,18.10
2022-09-09T20:39:01.491Z,18.30
2022-09-09T20:41:33.637Z,18.90
2022-09-09T20:44:09.211Z,18.90
2022-09-09T20:46:38.840Z,19.70
2022-09-09T20:49:09.724Z,19.50
2022-09-09T20:51:37.007Z,19.60
2022-09-09T20:54:10.460Z,19.40
2022-09-09T20:56:40.675Z,19.60
2022-09-09T20:59:11.287Z,20.30
2022-09-09T21:04:06.142Z,20.20
2022-09-09T21:06:32.677Z,20.50
2022-09-09T21:08:59.303Z,20.00
2022-09-09T21:11:25.876Z,20.10
2022-09-09T21:18:48.873Z,20.00
2022-09-09T21:21:19.094Z,20.60
2022-09-09T21:23:45.838Z,20.20
2022-09-09T21:28:39.496Z,20.40
2022-09-09T21:31:06.789Z,20.10
2022-09-09T21:33:34.441Z,20.30
2022-09-09T21:36:06.019Z,20.30
2022-09-09T21:38:33.344Z,20.20
2022-09-09T21:41:05.165Z,20.50
2022-09-09T21:43:32.234Z,20.00
2022-09-09T21:45:59.216Z,20.70
2022-09-09T21:48:28.445Z,20.40
2022-09-09T21:50:55.191Z,20.50
2022-09-09T21:53:21.761Z,20.20
2022-09-09T21:55:48.869Z,20.20
2022-09-09T21:58:16.549Z,20.40
2022-09-09T22:00:45.460Z,20.80
2022-09-09T22:03:14.839Z,20.50
2022-09-09T22:05:43.080Z,20.10
2022-09-09T22:08:11.895Z,20.50
2022-09-09T22:10:40.930Z,20.50
2022-09-09T22:13:08.300Z,20.50
2022-09-09T22:15:36.138Z,20.40
2022-09-09T22:18:04.096Z,20.70
2022-09-09T22:20:35.427Z,20.70
2022-09-09T22:23:01.981Z,20.10
2022-09-09T22:25:33.149Z,20.60
2022-09-09T22:27:59.659Z,20.50
2022-09-09T22:32:53.155Z,20.40
2022-09-09T22:35:19.689Z,20.80
2022-09-09T22:37:46.365Z,20.60
2022-09-09T22:40:14.168Z,20.90
2022-09-09T22:42:43.656Z,20.60
2022-09-09T22:45:11.523Z,20.60
2022-09-09T22:47:42.292Z,20.80
2022-09-09T22:50:10.045Z,20.50
2022-09-09T22:52:36.974Z,20.20
2022-09-09T22:55:03.677Z,20.80
2022-09-09T23:07:20.999Z,20.40
2022-09-09T23:09:47.751Z,20.50
2022-09-09T23:12:14.739Z,20.60
2022-09-09T23:22:03.640Z,20.60
2022-09-09T23:24:30.155Z,20.50
2022-09-09T23:26:56.676Z,20.60
2022-09-09T23:29:23.499Z,20.70
2022-09-09T23:31:50.057Z,20.80
2022-09-09T23:34:16.612Z,20.60
2022-09-09T23:36:43.351Z,20.50
2022-09-09T23:39:13.001Z,20.70
2022-09-09T23:41:40.178Z,20.60
2022-09-09T23:44:07.373Z,20.50
2022-09-09T23:46:35.210Z,21.00
2022-09-09T23:49:02.785Z,20.70
2022-09-09T23:51:30.945Z,20.60
2022-09-09T23:54:00.317Z,20.40
2022-09-09T23:56:29.435Z,20.70
2022-09-09T23:58:56.202Z,20.90
